sensor_id;sensor_type;location;lat;lon;timestamp;pressure;altitude;pressure_sealevel;temperature;humidity
55470;BME280;41334;47.872;16.384;2023-05-22T00:04:17;98945.72;;;14.77;73.97
55470;BME280;41334;47.872;16.384;2023-05-22T00:09:25;98941.16;;;14.73;74.08
55470;BME280;41334;47.872;16.384;2023-05-22T00:14:26;98939.25;;;14.64;74.00
55470;BME280;41334;47.872;16.384;2023-05-22T00:19:28;98928.22;;;14.56;73.97
55470;BME280;41334;47.872;16.384;2023-05-22T00:24:31;98927.59;;;14.50;74.91
55470;BME280;41334;47.872;16.384;2023-05-22T00:29:32;98934.47;;;14.44;76.06
55470;BME280;41334;47.872;16.384;2023-05-22T00:34:35;98925.38;;;14.35;78.00
55470;BME280;41334;47.872;16.384;2023-05-22T00:39:37;98928.00;;;14.31;75.95
55470;BME280;41334;47.872;16.384;2023-05-22T00:44:39;98925.56;;;14.30;75.72
55470;BME280;41334;47.872;16.384;2023-05-22T00:49:42;98919.19;;;14.29;76.55
55470;BME280;41334;47.872;16.384;2023-05-22T00:54:44;98916.81;;;14.19;75.36
55470;BME280;41334;47.872;16.384;2023-05-22T00:59:47;98922.75;;;14.09;75.02
55470;BME280;41334;47.872;16.384;2023-05-22T01:04:49;98921.97;;;14.00;75.23
55470;BME280;41334;47.872;16.384;2023-05-22T01:09:51;98922.97;;;13.95;75.95
55470;BME280;41334;47.872;16.384;2023-05-22T01:20:38;98924.03;;;13.82;76.34
55470;BME280;41334;47.872;16.384;2023-05-22T01:25:55;98923.22;;;13.81;75.91
55470;BME280;41334;47.872;16.384;2023-05-22T01:31:04;98922.41;;;13.81;75.07
55470;BME280;41334;47.872;16.384;2023-05-22T01:36:09;98923.59;;;13.71;75.24
55470;BME280;41334;47.872;16.384;2023-05-22T01:41:12;98922.28;;;13.69;76.43
55470;BME280;41334;47.872;16.384;2023-05-22T01:46:14;98925.91;;;13.60;76.01
55470;BME280;41334;47.872;16.384;2023-05-22T01:51:32;98921.53;;;13.51;75.83
55470;BME280;41334;47.872;16.384;2023-05-22T01:57:17;98923.34;;;13.47;76.33
55470;BME280;41334;47.872;16.384;2023-05-22T02:02:19;98919.91;;;13.41;76.09
55470;BME280;41334;47.872;16.384;2023-05-22T02:07:23;98916.03;;;13.33;76.86
55470;BME280;41334;47.872;16.384;2023-05-22T02:12:29;98920.44;;;13.26;76.92
55470;BME280;41334;47.872;16.384;2023-05-22T02:17:36;98918.34;;;13.23;78.26
55470;BME280;41334;47.872;16.384;2023-05-22T02:22:44;98922.06;;;13.18;79.18
55470;BME280;41334;47.872;16.384;2023-05-22T02:27:46;98914.41;;;13.15;82.71
55470;BME280;41334;47.872;16.384;2023-05-22T02:32:48;98918.84;;;13.07;80.16
55470;BME280;41334;47.872;16.384;2023-05-22T02:37:50;98921.13;;;13.05;79.61
55470;BME280;41334;47.872;16.384;2023-05-22T02:42:52;98921.28;;;13.09;79.64
55470;BME280;41334;47.872;16.384;2023-05-22T02:47:54;98920.97;;;13.02;79.15
55470;BME280;41334;47.872;16.384;2023-05-22T02:52:56;98918.03;;;12.98;79.04
55470;BME280;41334;47.872;16.384;2023-05-22T02:57:58;98906.47;;;12.96;78.41
55470;BME280;41334;47.872;16.384;2023-05-22T03:03:00;98914.59;;;12.93;78.20
55470;BME280;41334;47.872;16.384;2023-05-22T03:08:02;98917.03;;;12.94;78.33
55470;BME280;41334;47.872;16.384;2023-05-22T03:13:04;98921.13;;;12.97;78.49
55470;BME280;41334;47.872;16.384;2023-05-22T03:18:06;98924.22;;;13.04;77.79
55470;BME280;41334;47.872;16.384;2023-05-22T03:23:10;98918.50;;;13.09;77.40
55470;BME280;41334;47.872;16.384;2023-05-22T03:28:13;98924.88;;;13.27;76.09
55470;BME280;41334;47.872;16.384;2023-05-22T03:33:15;98913.81;;;13.65;76.80
55470;BME280;41334;47.872;16.384;2023-05-22T03:38:17;98904.41;;;14.16;74.21
55470;BME280;41334;47.872;16.384;2023-05-22T03:43:19;98916.16;;;14.22;72.63
55470;BME280;41334;47.872;16.384;2023-05-22T03:48:21;98912.69;;;14.25;73.26
55470;BME280;41334;47.872;16.384;2023-05-22T03:53:25;98920.28;;;14.37;72.46
55470;BME280;41334;47.872;16.384;2023-05-22T03:58:27;98925.22;;;15.03;71.31
55470;BME280;41334;47.872;16.384;2023-05-22T04:03:29;98918.13;;;15.05;70.45
55470;BME280;41334;47.872;16.384;2023-05-22T04:08:31;98919.88;;;14.77;71.45
55470;BME280;41334;47.872;16.384;2023-05-22T04:13:33;98918.41;;;15.58;69.42
55470;BME280;41334;47.872;16.384;2023-05-22T04:18:35;98920.25;;;18.58;59.85
55470;BME280;41334;47.872;16.384;2023-05-22T04:23:37;98914.00;;;20.34;53.67
55470;BME280;41334;47.872;16.384;2023-05-22T04:28:39;98913.19;;;18.80;57.53
55470;BME280;41334;47.872;16.384;2023-05-22T04:33:42;98916.56;;;17.88;62.14
55470;BME280;41334;47.872;16.384;2023-05-22T04:38:45;98906.09;;;17.53;62.44
55470;BME280;41334;47.872;16.384;2023-05-22T04:43:48;98914.38;;;17.49;63.19
55470;BME280;41334;47.872;16.384;2023-05-22T04:48:52;98919.13;;;17.49;63.45
55470;BME280;41334;47.872;16.384;2023-05-22T04:53:54;98914.75;;;17.64;63.63
55470;BME280;41334;47.872;16.384;2023-05-22T04:58:56;98915.06;;;17.46;63.68
55470;BME280;41334;47.872;16.384;2023-05-22T05:03:59;98926.84;;;17.40;65.13
55470;BME280;41334;47.872;16.384;2023-05-22T05:09:01;98926.81;;;17.68;63.71
55470;BME280;41334;47.872;16.384;2023-05-22T05:14:03;98934.22;;;18.23;61.93
55470;BME280;41334;47.872;16.384;2023-05-22T05:19:05;98925.00;;;18.39;62.39
55470;BME280;41334;47.872;16.384;2023-05-22T05:24:07;98929.91;;;18.61;60.90
55470;BME280;41334;47.872;16.384;2023-05-22T05:29:10;98919.34;;;18.90;60.94
55470;BME280;41334;47.872;16.384;2023-05-22T05:34:23;98927.19;;;19.19;60.33
55470;BME280;41334;47.872;16.384;2023-05-22T05:39:37;98917.31;;;18.87;62.04
55470;BME280;41334;47.872;16.384;2023-05-22T05:44:41;98927.97;;;19.39;60.37
55470;BME280;41334;47.872;16.384;2023-05-22T05:49:43;98929.00;;;19.31;61.25
55470;BME280;41334;47.872;16.384;2023-05-22T05:54:47;98915.31;;;19.91;58.72
55470;BME280;41334;47.872;16.384;2023-05-22T05:59:54;98914.84;;;19.43;61.49
55470;BME280;41334;47.872;16.384;2023-05-22T06:05:14;98915.44;;;20.21;59.72
55470;BME280;41334;47.872;16.384;2023-05-22T06:10:18;98915.53;;;20.28;60.26
55470;BME280;41334;47.872;16.384;2023-05-22T06:15:31;98922.06;;;20.36;59.83
55470;BME280;41334;47.872;16.384;2023-05-22T06:20:33;98918.78;;;20.30;59.85
55470;BME280;41334;47.872;16.384;2023-05-22T06:25:35;98917.00;;;21.02;57.96
55470;BME280;41334;47.872;16.384;2023-05-22T06:30:38;98907.69;;;20.64;58.64
55470;BME280;41334;47.872;16.384;2023-05-22T06:35:45;98911.16;;;20.84;58.72
55470;BME280;41334;47.872;16.384;2023-05-22T06:40:49;98922.34;;;21.44;56.47
55470;BME280;41334;47.872;16.384;2023-05-22T06:45:55;98928.66;;;21.34;57.09
55470;BME280;41334;47.872;16.384;2023-05-22T06:51:10;98921.56;;;21.88;55.82
55470;BME280;41334;47.872;16.384;2023-05-22T06:56:14;98915.03;;;21.77;56.30
55470;BME280;41334;47.872;16.384;2023-05-22T07:01:27;98912.56;;;22.67;54.56
55470;BME280;41334;47.872;16.384;2023-05-22T07:06:40;98906.47;;;23.42;51.55
55470;BME280;41334;47.872;16.384;2023-05-22T07:11:44;98923.72;;;23.19;52.29
55470;BME280;41334;47.872;16.384;2023-05-22T07:16:49;98921.72;;;23.30;51.69
55470;BME280;41334;47.872;16.384;2023-05-22T07:21:57;98911.41;;;23.95;50.23
55470;BME280;41334;47.872;16.384;2023-05-22T07:27:01;98914.97;;;23.49;49.83
55470;BME280;41334;47.872;16.384;2023-05-22T07:32:07;98914.84;;;23.20;49.85
55470;BME280;41334;47.872;16.384;2023-05-22T07:37:11;98912.63;;;23.90;47.89
55470;BME280;41334;47.872;16.384;2023-05-22T07:42:15;98915.75;;;24.92;46.27
55470;BME280;41334;47.872;16.384;2023-05-22T07:47:23;98915.53;;;25.49;45.36
55470;BME280;41334;47.872;16.384;2023-05-22T07:52:25;98908.91;;;24.93;45.46
55470;BME280;41334;47.872;16.384;2023-05-22T07:57:27;98904.06;;;24.90;46.13
55470;BME280;41334;47.872;16.384;2023-05-22T08:02:35;98911.78;;;25.67;45.19
55470;BME280;41334;47.872;16.384;2023-05-22T08:07:37;98905.13;;;25.98;44.59
55470;BME280;41334;47.872;16.384;2023-05-22T08:12:39;98899.25;;;26.27;44.08
55470;BME280;41334;47.872;16.384;2023-05-22T08:17:40;98895.56;;;26.30;44.40
55470;BME280;41334;47.872;16.384;2023-05-22T08:22:42;98891.03;;;26.36;44.67
55470;BME280;41334;47.872;16.384;2023-05-22T08:27:44;98881.91;;;26.62;43.76
55470;BME280;41334;47.872;16.384;2023-05-22T08:32:46;98881.22;;;27.23;42.41
55470;BME280;41334;47.872;16.384;2023-05-22T08:37:48;98876.66;;;27.60;41.45
55470;BME280;41334;47.872;16.384;2023-05-22T08:42:50;98883.38;;;27.42;42.46
55470;BME280;41334;47.872;16.384;2023-05-22T08:47:56;98881.00;;;27.95;41.43
55470;BME280;41334;47.872;16.384;2023-05-22T08:53:00;98879.41;;;27.63;42.64
55470;BME280;41334;47.872;16.384;2023-05-22T08:58:04;98877.97;;;27.82;41.38
55470;BME280;41334;47.872;16.384;2023-05-22T09:03:06;98872.25;;;27.55;38.26
55470;BME280;41334;47.872;16.384;2023-05-22T09:08:10;98872.41;;;27.99;37.75
55470;BME280;41334;47.872;16.384;2023-05-22T09:13:29;98867.34;;;27.86;38.30
55470;BME280;41334;47.872;16.384;2023-05-22T09:18:31;98868.97;;;28.11;38.40
55470;BME280;41334;47.872;16.384;2023-05-22T09:23:33;98873.06;;;28.33;38.26
55470;BME280;41334;47.872;16.384;2023-05-22T09:28:35;98862.91;;;28.56;36.38
55470;BME280;41334;47.872;16.384;2023-05-22T09:33:37;98866.88;;;28.82;37.66
55470;BME280;41334;47.872;16.384;2023-05-22T09:38:40;98872.50;;;28.42;35.74
55470;BME280;41334;47.872;16.384;2023-05-22T09:43:48;98859.00;;;28.89;36.37
55470;BME280;41334;47.872;16.384;2023-05-22T09:48:51;98862.06;;;29.18;35.50
55470;BME280;41334;47.872;16.384;2023-05-22T09:54:01;98857.34;;;29.12;36.50
55470;BME280;41334;47.872;16.384;2023-05-22T09:59:04;98851.84;;;29.41;35.97
55470;BME280;41334;47.872;16.384;2023-05-22T10:04:12;98850.72;;;29.71;35.28
55470;BME280;41334;47.872;16.384;2023-05-22T10:09:18;98848.06;;;29.96;35.96
55470;BME280;41334;47.872;16.384;2023-05-22T10:14:22;98843.91;;;30.17;34.08
55470;BME280;41334;47.872;16.384;2023-05-22T10:19:25;98838.47;;;30.23;33.87
55470;BME280;41334;47.872;16.384;2023-05-22T10:24:30;98826.38;;;30.19;35.53
55470;BME280;41334;47.872;16.384;2023-05-22T10:29:41;98821.66;;;30.58;33.24
55470;BME280;41334;47.872;16.384;2023-05-22T10:35:12;98814.31;;;30.73;31.33
55470;BME280;41334;47.872;16.384;2023-05-22T10:40:22;98805.00;;;30.85;30.37
55470;BME280;41334;47.872;16.384;2023-05-22T10:45:29;98806.75;;;31.21;31.28
55470;BME280;41334;47.872;16.384;2023-05-22T10:50:33;98799.63;;;31.67;31.62
55470;BME280;41334;47.872;16.384;2023-05-22T10:55:45;98789.81;;;31.81;29.86
55470;BME280;41334;47.872;16.384;2023-05-22T11:00:47;98781.50;;;32.43;30.17
55470;BME280;41334;47.872;16.384;2023-05-22T11:05:53;98776.75;;;32.27;28.37
55470;BME280;41334;47.872;16.384;2023-05-22T11:10:56;98771.84;;;31.93;30.09
55470;BME280;41334;47.872;16.384;2023-05-22T11:16:04;98769.34;;;31.57;29.72
55470;BME280;41334;47.872;16.384;2023-05-22T11:21:10;98768.88;;;31.97;29.33
55470;BME280;41334;47.872;16.384;2023-05-22T11:26:19;98763.97;;;31.85;30.22
55470;BME280;41334;47.872;16.384;2023-05-22T11:31:23;98760.78;;;31.70;27.60
55470;BME280;41334;47.872;16.384;2023-05-22T11:36:30;98754.63;;;31.46;26.87
55470;BME280;41334;47.872;16.384;2023-05-22T11:41:32;98766.72;;;31.24;30.50
55470;BME280;41334;47.872;16.384;2023-05-22T11:46:34;98761.47;;;31.61;28.18
55470;BME280;41334;47.872;16.384;2023-05-22T11:51:37;98757.56;;;31.93;29.73
55470;BME280;41334;47.872;16.384;2023-05-22T11:56:40;98757.69;;;31.77;30.20
55470;BME280;41334;47.872;16.384;2023-05-22T12:01:42;98754.47;;;32.22;29.74
55470;BME280;41334;47.872;16.384;2023-05-22T12:06:47;98753.00;;;32.52;29.25
55470;BME280;41334;47.872;16.384;2023-05-22T12:11:54;98746.69;;;32.57;29.37
55470;BME280;41334;47.872;16.384;2023-05-22T12:16:57;98739.91;;;32.42;28.79
55470;BME280;41334;47.872;16.384;2023-05-22T12:21:59;98732.56;;;32.63;28.90
55470;BME280;41334;47.872;16.384;2023-05-22T12:27:07;98739.13;;;32.07;27.30
55470;BME280;41334;47.872;16.384;2023-05-22T12:32:10;98725.47;;;32.11;27.95
55470;BME280;41334;47.872;16.384;2023-05-22T12:37:23;98715.50;;;32.50;27.34
55470;BME280;41334;47.872;16.384;2023-05-22T12:42:28;98714.84;;;32.12;28.72
55470;BME280;41334;47.872;16.384;2023-05-22T12:47:31;98717.28;;;32.57;30.08
55470;BME280;41334;47.872;16.384;2023-05-22T12:52:33;98710.78;;;32.22;30.48
55470;BME280;41334;47.872;16.384;2023-05-22T12:57:36;98717.88;;;32.52;28.79
55470;BME280;41334;47.872;16.384;2023-05-22T13:02:38;98719.06;;;32.64;28.48
55470;BME280;41334;47.872;16.384;2023-05-22T13:07:40;98714.25;;;32.82;27.76
55470;BME280;41334;47.872;16.384;2023-05-22T13:12:42;98722.75;;;32.07;30.46
55470;BME280;41334;47.872;16.384;2023-05-22T13:17:45;98721.75;;;32.01;28.94
55470;BME280;41334;47.872;16.384;2023-05-22T13:22:49;98720.13;;;32.00;27.36
55470;BME280;41334;47.872;16.384;2023-05-22T13:27:51;98714.53;;;32.31;27.00
55470;BME280;41334;47.872;16.384;2023-05-22T13:32:54;98709.78;;;32.16;27.23
55470;BME280;41334;47.872;16.384;2023-05-22T13:37:56;98710.38;;;32.11;28.49
55470;BME280;41334;47.872;16.384;2023-05-22T13:42:58;98711.66;;;32.75;25.77
55470;BME280;41334;47.872;16.384;2023-05-22T13:48:02;98713.56;;;33.31;27.38
55470;BME280;41334;47.872;16.384;2023-05-22T13:53:04;98711.00;;;33.24;26.79
55470;BME280;41334;47.872;16.384;2023-05-22T13:58:06;98705.72;;;32.61;25.87
55470;BME280;41334;47.872;16.384;2023-05-22T14:03:11;98708.03;;;31.49;26.29
55470;BME280;41334;47.872;16.384;2023-05-22T14:08:20;98704.28;;;31.39;26.60
55470;BME280;41334;47.872;16.384;2023-05-22T14:13:22;98694.09;;;31.98;26.92
55470;BME280;41334;47.872;16.384;2023-05-22T14:18:30;98694.78;;;31.55;26.35
55470;BME280;41334;47.872;16.384;2023-05-22T14:23:31;98684.75;;;31.85;25.76
55470;BME280;41334;47.872;16.384;2023-05-22T14:28:33;98683.28;;;30.95;27.00
55470;BME280;41334;47.872;16.384;2023-05-22T14:33:39;98683.00;;;32.00;25.54
55470;BME280;41334;47.872;16.384;2023-05-22T14:38:40;98673.59;;;32.13;23.56
55470;BME280;41334;47.872;16.384;2023-05-22T14:43:46;98662.47;;;31.45;25.58
55470;BME280;41334;47.872;16.384;2023-05-22T14:48:48;98666.94;;;30.83;26.58
55470;BME280;41334;47.872;16.384;2023-05-22T14:53:50;98667.44;;;31.67;25.88
55470;BME280;41334;47.872;16.384;2023-05-22T14:58:51;98667.06;;;31.77;26.59
55470;BME280;41334;47.872;16.384;2023-05-22T15:03:53;98668.53;;;31.35;28.60
55470;BME280;41334;47.872;16.384;2023-05-22T15:08:55;98657.44;;;30.60;26.67
55470;BME280;41334;47.872;16.384;2023-05-22T15:13:57;98648.88;;;31.37;26.92
55470;BME280;41334;47.872;16.384;2023-05-22T15:19:01;98642.84;;;31.69;29.17
55470;BME280;41334;47.872;16.384;2023-05-22T15:24:04;98641.13;;;31.24;28.03
55470;BME280;41334;47.872;16.384;2023-05-22T15:29:06;98638.38;;;31.21;26.57
55470;BME280;41334;47.872;16.384;2023-05-22T15:34:17;98642.88;;;30.71;34.67
55470;BME280;41334;47.872;16.384;2023-05-22T15:39:18;98638.28;;;28.95;38.38
55470;BME280;41334;47.872;16.384;2023-05-22T15:44:20;98632.66;;;30.32;33.10
55470;BME280;41334;47.872;16.384;2023-05-22T15:49:22;98621.06;;;30.77;31.55
55470;BME280;41334;47.872;16.384;2023-05-22T15:54:24;98621.28;;;31.08;32.32
55470;BME280;41334;47.872;16.384;2023-05-22T15:59:26;98619.91;;;30.49;30.98
55470;BME280;41334;47.872;16.384;2023-05-22T16:04:30;98617.41;;;31.02;32.68
55470;BME280;41334;47.872;16.384;2023-05-22T16:09:31;98617.00;;;30.23;34.56
55470;BME280;41334;47.872;16.384;2023-05-22T16:14:33;98615.47;;;30.48;33.44
55470;BME280;41334;47.872;16.384;2023-05-22T16:19:35;98629.56;;;29.68;32.20
55470;BME280;41334;47.872;16.384;2023-05-22T16:24:37;98628.63;;;29.26;34.87
55470;BME280;41334;47.872;16.384;2023-05-22T16:29:39;98634.13;;;29.33;31.45
55470;BME280;41334;47.872;16.384;2023-05-22T16:34:41;98639.84;;;30.07;34.26
55470;BME280;41334;47.872;16.384;2023-05-22T16:39:45;98632.28;;;30.30;30.14
55470;BME280;41334;47.872;16.384;2023-05-22T16:44:47;98638.53;;;30.12;30.97
55470;BME280;41334;47.872;16.384;2023-05-22T16:49:48;98631.25;;;29.94;29.96
55470;BME280;41334;47.872;16.384;2023-05-22T16:54:51;98630.69;;;29.70;30.13
55470;BME280;41334;47.872;16.384;2023-05-22T16:59:53;98642.03;;;29.58;29.30
55470;BME280;41334;47.872;16.384;2023-05-22T17:04:58;98634.19;;;29.29;30.60
55470;BME280;41334;47.872;16.384;2023-05-22T17:10:01;98640.00;;;29.09;31.46
55470;BME280;41334;47.872;16.384;2023-05-22T17:15:07;98638.22;;;29.15;31.36
55470;BME280;41334;47.872;16.384;2023-05-22T17:20:11;98639.69;;;29.53;31.72
55470;BME280;41334;47.872;16.384;2023-05-22T17:25:13;98638.50;;;30.66;29.09
55470;BME280;41334;47.872;16.384;2023-05-22T17:30:26;98632.22;;;31.10;28.71
55470;BME280;41334;47.872;16.384;2023-05-22T17:35:28;98632.97;;;30.34;28.29
55470;BME280;41334;47.872;16.384;2023-05-22T17:40:30;98637.06;;;29.13;29.88
55470;BME280;41334;47.872;16.384;2023-05-22T17:45:45;98634.59;;;28.23;33.34
55470;BME280;41334;47.872;16.384;2023-05-22T17:50:50;98635.50;;;27.56;35.11
55470;BME280;41334;47.872;16.384;2023-05-22T17:55:52;98636.75;;;27.08;35.72
55470;BME280;41334;47.872;16.384;2023-05-22T18:00:54;98635.94;;;26.54;37.20
55470;BME280;41334;47.872;16.384;2023-05-22T18:05:56;98635.25;;;26.12;37.82
55470;BME280;41334;47.872;16.384;2023-05-22T18:10:59;98628.84;;;25.70;39.95
55470;BME280;41334;47.872;16.384;2023-05-22T18:16:01;98632.03;;;25.34;40.83
55470;BME280;41334;47.872;16.384;2023-05-22T18:21:04;98632.34;;;24.95;41.76
55470;BME280;41334;47.872;16.384;2023-05-22T18:26:06;98644.69;;;24.60;42.79
55470;BME280;41334;47.872;16.384;2023-05-22T18:31:07;98645.00;;;24.03;45.10
55470;BME280;41334;47.872;16.384;2023-05-22T18:36:12;98629.78;;;23.68;48.50
55470;BME280;41334;47.872;16.384;2023-05-22T18:41:14;98630.22;;;23.35;49.89
55470;BME280;41334;47.872;16.384;2023-05-22T18:46:15;98635.47;;;23.04;50.02
55470;BME280;41334;47.872;16.384;2023-05-22T18:51:19;98634.63;;;22.82;50.44
55470;BME280;41334;47.872;16.384;2023-05-22T18:56:21;98646.25;;;22.56;51.45
55470;BME280;41334;47.872;16.384;2023-05-22T19:01:23;98649.44;;;22.40;51.79
55470;BME280;41334;47.872;16.384;2023-05-22T19:06:25;98645.41;;;22.27;51.90
55470;BME280;41334;47.872;16.384;2023-05-22T19:11:27;98647.34;;;22.15;52.32
55470;BME280;41334;47.872;16.384;2023-05-22T19:16:28;98648.06;;;22.02;52.24
55470;BME280;41334;47.872;16.384;2023-05-22T19:21:30;98646.81;;;21.85;52.46
55470;BME280;41334;47.872;16.384;2023-05-22T19:26:33;98657.56;;;21.68;52.66
55470;BME280;41334;47.872;16.384;2023-05-22T19:31:37;98656.63;;;21.50;52.72
55470;BME280;41334;47.872;16.384;2023-05-22T19:36:39;98655.31;;;21.33;53.00
55470;BME280;41334;47.872;16.384;2023-05-22T19:41:41;98661.53;;;21.12;53.42
55470;BME280;41334;47.872;16.384;2023-05-22T19:46:43;98673.44;;;20.95;54.51
55470;BME280;41334;47.872;16.384;2023-05-22T19:51:45;98658.47;;;20.80;55.36
55470;BME280;41334;47.872;16.384;2023-05-22T19:56:47;98655.94;;;20.68;55.60
55470;BME280;41334;47.872;16.384;2023-05-22T20:01:49;98660.66;;;20.60;55.18
55470;BME280;41334;47.872;16.384;2023-05-22T20:06:54;98659.34;;;20.47;56.01
55470;BME280;41334;47.872;16.384;2023-05-22T20:11:59;98657.59;;;20.39;56.80
55470;BME280;41334;47.872;16.384;2023-05-22T20:17:01;98664.69;;;20.26;56.51
55470;BME280;41334;47.872;16.384;2023-05-22T20:22:03;98655.69;;;20.13;56.91
55470;BME280;41334;47.872;16.384;2023-05-22T20:27:09;98658.00;;;20.04;56.96
55470;BME280;41334;47.872;16.384;2023-05-22T20:32:11;98663.75;;;19.84;59.04
55470;BME280;41334;47.872;16.384;2023-05-22T20:37:13;98667.28;;;19.51;60.63
55470;BME280;41334;47.872;16.384;2023-05-22T20:42:16;98663.38;;;19.33;61.30
55470;BME280;41334;47.872;16.384;2023-05-22T20:47:18;98670.47;;;19.23;61.02
55470;BME280;41334;47.872;16.384;2023-05-22T20:52:20;98671.09;;;19.13;60.49
55470;BME280;41334;47.872;16.384;2023-05-22T20:57:23;98672.16;;;19.05;60.06
55470;BME280;41334;47.872;16.384;2023-05-22T21:02:25;98667.16;;;18.95;59.85
55470;BME280;41334;47.872;16.384;2023-05-22T21:07:27;98669.66;;;18.77;60.11
55470;BME280;41334;47.872;16.384;2023-05-22T21:12:29;98670.78;;;18.72;61.21
55470;BME280;41334;47.872;16.384;2023-05-22T21:17:31;98673.75;;;18.60;60.62
55470;BME280;41334;47.872;16.384;2023-05-22T21:22:33;98665.88;;;18.46;61.49
55470;BME280;41334;47.872;16.384;2023-05-22T21:27:35;98670.16;;;18.40;62.91
55470;BME280;41334;47.872;16.384;2023-05-22T21:32:37;98664.44;;;18.33;61.91
55470;BME280;41334;47.872;16.384;2023-05-22T21:37:39;98664.75;;;18.28;62.74
55470;BME280;41334;47.872;16.384;2023-05-22T21:42:41;98663.84;;;18.24;62.78
55470;BME280;41334;47.872;16.384;2023-05-22T21:47:47;98666.44;;;18.13;63.17
55470;BME280;41334;47.872;16.384;2023-05-22T21:52:50;98658.13;;;17.97;62.21
55470;BME280;41334;47.872;16.384;2023-05-22T21:57:54;98655.91;;;17.87;63.87
55470;BME280;41334;47.872;16.384;2023-05-22T22:02:56;98656.31;;;17.70;63.48
55470;BME280;41334;47.872;16.384;2023-05-22T22:07:58;98664.09;;;17.61;65.45
55470;BME280;41334;47.872;16.384;2023-05-22T22:13:00;98646.28;;;17.49;64.83
55470;BME280;41334;47.872;16.384;2023-05-22T22:18:03;98652.34;;;17.36;66.48
55470;BME280;41334;47.872;16.384;2023-05-22T22:23:05;98650.97;;;17.26;66.83
55470;BME280;41334;47.872;16.384;2023-05-22T22:28:08;98647.44;;;17.13;66.10
55470;BME280;41334;47.872;16.384;2023-05-22T22:33:09;98644.03;;;17.04;67.29
55470;BME280;41334;47.872;16.384;2023-05-22T22:38:12;98650.72;;;16.99;67.71
55470;BME280;41334;47.872;16.384;2023-05-22T22:43:14;98648.81;;;16.88;67.61
55470;BME280;41334;47.872;16.384;2023-05-22T22:48:16;98645.50;;;16.82;67.81
55470;BME280;41334;47.872;16.384;2023-05-22T22:53:22;98648.34;;;16.70;68.76
55470;BME280;41334;47.872;16.384;2023-05-22T22:58:25;98646.44;;;16.58;68.66
55470;BME280;41334;47.872;16.384;2023-05-22T23:03:26;98633.75;;;16.45;68.27
55470;BME280;41334;47.872;16.384;2023-05-22T23:08:28;98641.81;;;16.34;69.05
55470;BME280;41334;47.872;16.384;2023-05-22T23:13:30;98633.97;;;16.24;68.62
55470;BME280;41334;47.872;16.384;2023-05-22T23:18:32;98617.78;;;16.14;69.16
55470;BME280;41334;47.872;16.384;2023-05-22T23:23:34;98621.03;;;16.16;68.33
55470;BME280;41334;47.872;16.384;2023-05-22T23:28:36;98614.44;;;16.08;68.34
55470;BME280;41334;47.872;16.384;2023-05-22T23:33:41;98611.59;;;16.05;68.14
55470;BME280;41334;47.872;16.384;2023-05-22T23:38:43;98614.16;;;15.97;67.88
55470;BME280;41334;47.872;16.384;2023-05-22T23:43:46;98606.78;;;15.89;68.22
55470;BME280;41334;47.872;16.384;2023-05-22T23:48:48;98596.84;;;15.76;69.00
55470;BME280;41334;47.872;16.384;2023-05-22T23:53:50;98599.78;;;15.67;69.09
55470;BME280;41334;47.872;16.384;2023-05-22T23:58:55;98593.53;;;15.58;70.50
